Time;durP1;ratioP1;P1;durP2;ratioP2;P2;SDS_P1;SDS_P2;PMS_P1;PMS_P2;Temp;Humidity;BMP_temperature;BMP_pressure;BME280_temperature;BME280_humidity;BME280_pressure;Samples;Min_cycle;Max_cycle;Signal;HPM_P1;HPM_P2
2021/10/10 00:02:24;;;;;;;25.35;17.30;;;;;;;;;;4991298;28;20034;-83
2021/10/10 00:04:50;;;;;;;25.00;17.13;;;;;;;;;;4997659;28;20044;-83
2021/10/10 00:07:15;;;;;;;24.85;17.25;;;;;;;;;;4983970;28;20038;-83
2021/10/10 00:09:41;;;;;;;26.63;17.77;;;;;;;;;;4963567;28;20077;-84
2021/10/10 00:12:06;;;;;;;27.38;18.33;;;;;;;;;;4972766;28;20117;-83
2021/10/10 00:14:32;;;;;;;24.15;17.45;;;;;;;;;;4981772;28;20030;-84
2021/10/10 00:16:57;;;;;;;25.75;16.95;;;;;;;;;;4990048;28;20058;-83
2021/10/10 00:19:23;;;;;;;23.00;17.13;;;;;;;;;;4991719;28;20076;-84
2021/10/10 00:21:48;;;;;;;23.10;16.60;;;;;;;;;;4976288;28;20038;-84
2021/10/10 00:24:13;;;;;;;24.42;16.65;;;;;;;;;;4986987;28;20034;-84
2021/10/10 00:26:39;;;;;;;22.75;16.88;;;;;;;;;;4995684;28;20041;-83
2021/10/10 00:29:04;;;;;;;23.40;16.00;;;;;;;;;;4976887;28;20045;-84
2021/10/10 00:31:30;;;;;;;24.17;15.98;;;;;;;;;;4982032;28;20106;-83
2021/10/10 00:33:55;;;;;;;22.70;15.75;;;;;;;;;;4983584;28;20045;-83
2021/10/10 00:36:21;;;;;;;21.42;15.50;;;;;;;;;;4997205;28;20030;-84
2021/10/10 00:38:46;;;;;;;22.23;16.30;;;;;;;;;;4993190;28;20091;-84
2021/10/10 00:41:12;;;;;;;24.35;16.25;;;;;;;;;;4960466;28;20034;-84
2021/10/10 00:43:37;;;;;;;22.08;15.48;;;;;;;;;;4997671;28;20044;-84
2021/10/10 00:46:03;;;;;;;22.88;15.70;;;;;;;;;;4997376;28;20032;-83
2021/10/10 00:48:29;;;;;;;20.90;15.32;;;;;;;;;;4973462;28;20057;-84
2021/10/10 00:50:55;;;;;;;20.35;14.98;;;;;;;;;;4997836;28;20029;-84
2021/10/10 00:53:22;;;;;;;21.05;15.32;;;;;;;;;;4996397;28;20037;-83
2021/10/10 00:55:53;;;;;;;19.58;14.10;;;;;;;;;;4995852;28;20030;-83
2021/10/10 00:58:24;;;;;;;20.50;14.60;;;;;;;;;;5015191;28;20151;-84
2021/10/10 01:00:54;;;;;;;19.20;13.93;;;;;;;;;;4993844;28;20389;-84
2021/10/10 01:03:21;;;;;;;19.13;14.20;;;;;;;;;;4998722;28;20121;-83
2021/10/10 01:05:46;;;;;;;18.67;13.18;;;;;;;;;;4983561;28;20116;-83
2021/10/10 01:08:14;;;;;;;21.27;13.85;;;;;;;;;;4987100;28;20080;-83
2021/10/10 01:10:40;;;;;;;21.63;13.43;;;;;;;;;;4996127;28;20140;-83
2021/10/10 01:13:06;;;;;;;19.33;13.93;;;;;;;;;;4971416;28;20053;-84
2021/10/10 01:15:32;;;;;;;18.77;14.18;;;;;;;;;;4980486;28;20038;-83
2021/10/10 01:17:57;;;;;;;22.35;14.27;;;;;;;;;;4986547;28;20084;-83
2021/10/10 01:20:26;;;;;;;19.00;13.63;;;;;;;;;;4998010;28;20045;-84
2021/10/10 01:22:51;;;;;;;20.40;14.13;;;;;;;;;;4996097;28;20014;-83
2021/10/10 01:25:17;;;;;;;20.75;14.43;;;;;;;;;;4984264;28;20397;-83
2021/10/10 01:27:42;;;;;;;19.85;14.23;;;;;;;;;;4999170;28;20030;-83
2021/10/10 01:30:08;;;;;;;22.00;13.68;;;;;;;;;;4996652;28;20495;-84
2021/10/10 01:32:34;;;;;;;17.35;12.77;;;;;;;;;;4981936;28;20026;-84
2021/10/10 01:34:59;;;;;;;21.23;13.63;;;;;;;;;;4996332;28;20022;-83
2021/10/10 01:37:25;;;;;;;20.73;14.00;;;;;;;;;;4980127;28;20034;-83
2021/10/10 01:39:51;;;;;;;17.83;13.25;;;;;;;;;;4978367;28;20441;-83
2021/10/10 01:42:16;;;;;;;18.20;13.25;;;;;;;;;;4999831;28;20065;-84
2021/10/10 01:44:42;;;;;;;17.52;13.05;;;;;;;;;;4982876;28;20052;-83
2021/10/10 01:47:07;;;;;;;17.77;13.23;;;;;;;;;;4999153;28;20030;-84
2021/10/10 01:49:37;;;;;;;18.70;13.23;;;;;;;;;;4998382;28;20029;-83
2021/10/10 01:52:03;;;;;;;18.42;13.88;;;;;;;;;;4996932;28;20473;-84
2021/10/10 01:54:29;;;;;;;18.75;13.38;;;;;;;;;;5015767;28;20036;-84
2021/10/10 01:56:54;;;;;;;17.90;13.48;;;;;;;;;;4997456;28;20030;-83
2021/10/10 01:59:20;;;;;;;21.67;14.05;;;;;;;;;;4981904;28;20038;-84
2021/10/10 02:01:45;;;;;;;19.95;13.75;;;;;;;;;;4984348;28;20542;-84
2021/10/10 02:04:11;;;;;;;19.45;13.88;;;;;;;;;;4963788;28;20026;-83
2021/10/10 02:06:36;;;;;;;19.83;14.20;;;;;;;;;;4969519;28;20481;-83
2021/10/10 02:09:02;;;;;;;21.95;14.20;;;;;;;;;;4979414;28;20137;-83
2021/10/10 02:11:27;;;;;;;19.02;13.57;;;;;;;;;;4990886;28;20034;-83
2021/10/10 02:13:53;;;;;;;17.38;13.35;;;;;;;;;;4981183;28;20037;-83
2021/10/10 02:16:18;;;;;;;17.88;13.60;;;;;;;;;;4985127;28;20037;-83
2021/10/10 02:18:45;;;;;;;17.70;12.95;;;;;;;;;;4979552;28;20030;-83
2021/10/10 02:21:10;;;;;;;19.58;13.35;;;;;;;;;;4992203;28;20072;-83
2021/10/10 02:23:36;;;;;;;21.67;13.85;;;;;;;;;;4981056;28;20031;-83
2021/10/10 02:26:01;;;;;;;18.90;13.40;;;;;;;;;;5010100;28;20030;-85
2021/10/10 02:28:27;;;;;;;18.67;13.73;;;;;;;;;;4960127;28;20542;-85
2021/10/10 02:30:52;;;;;;;19.50;13.93;;;;;;;;;;4973394;28;20037;-83
2021/10/10 02:33:18;;;;;;;17.45;13.32;;;;;;;;;;4987568;28;20025;-84
2021/10/10 02:35:44;;;;;;;18.73;13.40;;;;;;;;;;4981241;28;20041;-84
2021/10/10 02:38:11;;;;;;;17.30;13.35;;;;;;;;;;4997378;28;20026;-83
2021/10/10 02:40:36;;;;;;;17.30;13.05;;;;;;;;;;4983555;28;20030;-84
2021/10/10 02:43:02;;;;;;;16.75;12.70;;;;;;;;;;5016372;28;20369;-85
2021/10/10 02:45:27;;;;;;;20.45;13.25;;;;;;;;;;4983426;28;20041;-84
2021/10/10 02:47:53;;;;;;;17.67;12.07;;;;;;;;;;4970025;28;20034;-84
2021/10/10 02:50:18;;;;;;;16.02;12.00;;;;;;;;;;4983619;28;20412;-83
2021/10/10 02:52:44;;;;;;;15.40;11.27;;;;;;;;;;4987015;28;20120;-84
2021/10/10 02:55:09;;;;;;;14.45;11.95;;;;;;;;;;4967345;28;20034;-84
2021/10/10 02:57:35;;;;;;;16.80;12.00;;;;;;;;;;4994072;28;20056;-84
2021/10/10 03:00:00;;;;;;;15.15;10.57;;;;;;;;;;5003083;28;20492;-83
2021/10/10 03:02:26;;;;;;;14.82;11.10;;;;;;;;;;5002161;28;20033;-84
2021/10/10 03:04:51;;;;;;;15.02;11.27;;;;;;;;;;4996626;28;20036;-83
2021/10/10 03:07:17;;;;;;;13.65;10.38;;;;;;;;;;4985145;28;20034;-84
2021/10/10 03:09:42;;;;;;;13.27;10.50;;;;;;;;;;4993107;28;20026;-84
2021/10/10 03:12:08;;;;;;;14.45;10.82;;;;;;;;;;5000622;28;20030;-83
2021/10/10 03:14:33;;;;;;;15.15;10.02;;;;;;;;;;4999724;28;20096;-84
2021/10/10 03:16:59;;;;;;;13.95;10.10;;;;;;;;;;4983017;28;20045;-84
2021/10/10 03:19:24;;;;;;;14.55;9.80;;;;;;;;;;4996845;28;20026;-84
2021/10/10 03:21:49;;;;;;;13.10;9.23;;;;;;;;;;4961226;28;20392;-84
2021/10/10 03:24:15;;;;;;;12.52;9.25;;;;;;;;;;4967882;28;20026;-85
2021/10/10 03:26:40;;;;;;;15.40;9.18;;;;;;;;;;4967573;28;20034;-83
2021/10/10 03:29:06;;;;;;;13.07;9.85;;;;;;;;;;4981146;28;20469;-84
2021/10/10 03:31:31;;;;;;;12.23;9.40;;;;;;;;;;4985781;28;20033;-84
2021/10/10 03:33:57;;;;;;;12.43;9.65;;;;;;;;;;4985409;28;20030;-85
2021/10/10 03:36:22;;;;;;;10.20;8.20;;;;;;;;;;4998577;28;20033;-85
2021/10/10 03:38:47;;;;;;;11.63;8.10;;;;;;;;;;4979028;28;20101;-85
2021/10/10 03:41:13;;;;;;;10.60;8.20;;;;;;;;;;4997909;28;20049;-83
2021/10/10 03:43:39;;;;;;;10.32;7.85;;;;;;;;;;4981889;28;20041;-85
2021/10/10 03:46:04;;;;;;;12.35;8.27;;;;;;;;;;4982535;28;20504;-83
2021/10/10 03:48:30;;;;;;;13.52;9.20;;;;;;;;;;4998998;28;20037;-84
2021/10/10 03:50:55;;;;;;;13.38;8.18;;;;;;;;;;4969592;28;20421;-85
2021/10/10 03:53:26;;;;;;;11.32;8.98;;;;;;;;;;4974602;28;20030;-83
2021/10/10 03:55:52;;;;;;;11.63;8.60;;;;;;;;;;4982419;28;20477;-83
2021/10/10 03:58:18;;;;;;;13.05;8.65;;;;;;;;;;4980994;28;20100;-85
2021/10/10 04:00:44;;;;;;;12.35;8.75;;;;;;;;;;4964793;28;20038;-83
2021/10/10 04:03:10;;;;;;;12.00;8.63;;;;;;;;;;4984428;28;20038;-84
2021/10/10 04:05:40;;;;;;;13.15;8.82;;;;;;;;;;4968614;28;20507;-84
2021/10/10 04:08:06;;;;;;;11.85;8.65;;;;;;;;;;4985185;28;20053;-83
2021/10/10 04:10:32;;;;;;;14.05;9.30;;;;;;;;;;5000275;28;20030;-84
2021/10/10 04:12:57;;;;;;;12.68;9.38;;;;;;;;;;5000224;28;20026;-84
2021/10/10 04:15:23;;;;;;;13.07;9.20;;;;;;;;;;4981396;28;20022;-85
2021/10/10 04:17:48;;;;;;;13.27;8.73;;;;;;;;;;4983501;28;20041;-84
2021/10/10 04:20:15;;;;;;;12.18;9.38;;;;;;;;;;4965621;28;20748;-84
2021/10/10 04:22:42;;;;;;;14.00;8.65;;;;;;;;;;4980977;28;20030;-84
2021/10/10 04:25:09;;;;;;;12.27;9.00;;;;;;;;;;4993994;28;20029;-85
2021/10/10 04:27:38;;;;;;;12.05;9.02;;;;;;;;;;4982902;28;20613;-84
2021/10/10 04:30:06;;;;;;;11.98;9.27;;;;;;;;;;4983447;28;20030;-83
2021/10/10 04:32:32;;;;;;;15.18;10.10;;;;;;;;;;4999394;28;20036;-85
2021/10/10 04:34:58;;;;;;;14.20;9.85;;;;;;;;;;4997012;28;20388;-84
2021/10/10 04:37:23;;;;;;;13.23;9.95;;;;;;;;;;4980528;28;20500;-84
2021/10/10 04:39:48;;;;;;;11.23;9.45;;;;;;;;;;4978004;28;20048;-84
2021/10/10 04:42:14;;;;;;;13.38;10.68;;;;;;;;;;4957372;28;20080;-84
2021/10/10 04:44:39;;;;;;;12.40;9.75;;;;;;;;;;4976416;28;20397;-83
2021/10/10 04:47:05;;;;;;;12.32;9.40;;;;;;;;;;4999088;28;20037;-84
2021/10/10 04:49:35;;;;;;;12.98;9.77;;;;;;;;;;5000131;28;20508;-84
2021/10/10 04:52:02;;;;;;;11.93;9.48;;;;;;;;;;5000442;28;20030;-85
2021/10/10 04:54:29;;;;;;;13.02;10.15;;;;;;;;;;4992937;28;20021;-84
2021/10/10 04:56:54;;;;;;;14.60;10.45;;;;;;;;;;4994987;28;20472;-85
2021/10/10 04:59:20;;;;;;;13.27;10.45;;;;;;;;;;4992370;28;20034;-84
2021/10/10 05:01:45;;;;;;;13.15;9.57;;;;;;;;;;4969001;28;20034;-85
2021/10/10 05:04:11;;;;;;;14.35;10.07;;;;;;;;;;4981977;28;20037;-83
2021/10/10 05:06:36;;;;;;;12.98;10.25;;;;;;;;;;4980300;28;20034;-85
2021/10/10 05:09:01;;;;;;;15.32;10.70;;;;;;;;;;4975781;28;20117;-84
2021/10/10 05:11:27;;;;;;;15.00;10.80;;;;;;;;;;4981747;28;20080;-83
2021/10/10 05:13:52;;;;;;;13.68;10.57;;;;;;;;;;4995636;28;20073;-85
2021/10/10 05:16:18;;;;;;;14.43;10.15;;;;;;;;;;4996048;28;20036;-83
2021/10/10 05:18:43;;;;;;;15.00;9.40;;;;;;;;;;4978202;28;20405;-84
2021/10/10 05:21:08;;;;;;;13.38;9.73;;;;;;;;;;4999044;28;20041;-83
2021/10/10 05:23:34;;;;;;;13.18;9.85;;;;;;;;;;4979606;28;20045;-84
2021/10/10 05:26:00;;;;;;;13.02;9.75;;;;;;;;;;4979698;28;20043;-84
2021/10/10 05:28:26;;;;;;;11.90;9.25;;;;;;;;;;4976487;28;20494;-84
2021/10/10 05:30:51;;;;;;;11.80;9.27;;;;;;;;;;4990514;28;20026;-85
2021/10/10 05:33:18;;;;;;;12.80;9.50;;;;;;;;;;4999313;28;20030;-85
2021/10/10 05:35:44;;;;;;;12.18;8.63;;;;;;;;;;4994297;28;20034;-85
2021/10/10 05:38:09;;;;;;;9.63;8.00;;;;;;;;;;4996599;28;20120;-83
2021/10/10 05:40:35;;;;;;;8.75;7.53;;;;;;;;;;4976149;28;20041;-83
2021/10/10 05:43:00;;;;;;;7.95;6.75;;;;;;;;;;4999600;28;20033;-84
2021/10/10 05:45:26;;;;;;;7.40;6.13;;;;;;;;;;4998708;28;20397;-84
2021/10/10 05:47:51;;;;;;;7.28;6.38;;;;;;;;;;4979018;28;20026;-84
2021/10/10 05:50:17;;;;;;;8.13;6.40;;;;;;;;;;4981285;28;20455;-85
2021/10/10 05:52:42;;;;;;;8.02;7.07;;;;;;;;;;4984089;28;20030;-84
2021/10/10 05:55:09;;;;;;;7.90;6.78;;;;;;;;;;4978345;28;20114;-84
2021/10/10 05:57:44;;;;;;;10.50;7.30;;;;;;;;;;4978025;28;20050;-84
2021/10/10 06:00:20;;;;;;;8.35;7.45;;;;;;;;;;4982794;28;20034;-84
2021/10/10 06:02:46;;;;;;;10.07;8.23;;;;;;;;;;4999050;28;20030;-83
2021/10/10 06:05:12;;;;;;;9.85;7.93;;;;;;;;;;4980490;28;20042;-84
2021/10/10 06:07:38;;;;;;;9.43;7.78;;;;;;;;;;5004654;28;20484;-84
2021/10/10 06:10:06;;;;;;;9.90;7.80;;;;;;;;;;4992259;28;20032;-84
2021/10/10 06:12:31;;;;;;;9.50;8.10;;;;;;;;;;4993371;28;20026;-84
2021/10/10 06:15:00;;;;;;;9.35;8.07;;;;;;;;;;4981108;28;20042;-83
2021/10/10 06:17:26;;;;;;;13.02;8.50;;;;;;;;;;4974097;28;20467;-85
2021/10/10 06:19:52;;;;;;;10.70;8.75;;;;;;;;;;4980826;28;20072;-84
2021/10/10 06:22:17;;;;;;;12.27;8.90;;;;;;;;;;4984247;28;20037;-84
2021/10/10 06:24:44;;;;;;;14.02;9.32;;;;;;;;;;4981803;28;20042;-84
2021/10/10 06:27:10;;;;;;;11.43;9.23;;;;;;;;;;4967493;28;20037;-84
2021/10/10 06:29:35;;;;;;;11.55;9.02;;;;;;;;;;4980631;28;20030;-83
2021/10/10 06:32:01;;;;;;;11.15;8.25;;;;;;;;;;4992369;28;20673;-85
2021/10/10 06:34:26;;;;;;;12.50;9.50;;;;;;;;;;4978804;28;20034;-84
2021/10/10 06:36:52;;;;;;;14.98;9.00;;;;;;;;;;4995794;28;20037;-83
2021/10/10 06:39:17;;;;;;;12.85;9.57;;;;;;;;;;5014543;28;20036;-85
2021/10/10 06:41:45;;;;;;;13.30;9.82;;;;;;;;;;4978699;28;20087;-83
2021/10/10 06:44:11;;;;;;;17.92;10.68;;;;;;;;;;4997897;28;20034;-83
2021/10/10 06:46:36;;;;;;;16.92;11.73;;;;;;;;;;4996509;28;20049;-84
2021/10/10 06:49:02;;;;;;;16.48;11.52;;;;;;;;;;4978503;28;20101;-85
2021/10/10 06:51:28;;;;;;;18.90;11.93;;;;;;;;;;4979313;28;20034;-83
2021/10/10 06:53:54;;;;;;;16.95;12.32;;;;;;;;;;5000158;28;20032;-84
2021/10/10 06:56:19;;;;;;;16.38;12.18;;;;;;;;;;4981528;28;20030;-83
2021/10/10 06:58:44;;;;;;;16.27;13.13;;;;;;;;;;4983939;28;20058;-84
2021/10/10 07:01:14;;;;;;;16.65;12.57;;;;;;;;;;4985096;28;20027;-83
2021/10/10 07:03:40;;;;;;;18.48;12.93;;;;;;;;;;5000343;28;20030;-84
2021/10/10 07:06:06;;;;;;;15.40;12.50;;;;;;;;;;4998991;28;20392;-84
2021/10/10 07:08:31;;;;;;;17.48;13.75;;;;;;;;;;4984000;28;20109;-84
2021/10/10 07:10:56;;;;;;;16.48;13.38;;;;;;;;;;5016187;28;20168;-84
2021/10/10 07:13:30;;;;;;;16.13;13.40;;;;;;;;;;4967363;28;20022;-85
2021/10/10 07:16:03;;;;;;;18.85;13.90;;;;;;;;;;4986056;28;20030;-85
2021/10/10 07:18:43;;;;;;;16.48;13.02;;;;;;;;;;4983531;28;20029;-83
2021/10/10 07:24:51;;;;;;;15.38;11.88;;;;;;;;;;5014033;28;20084;-84
2021/10/10 07:26:41;;;;;;;15.05;10.95;;;;;;;;;;4994058;28;20038;-82
2021/10/10 07:29:06;;;;;;;13.80;11.10;;;;;;;;;;4966519;28;20125;-83
2021/10/10 07:31:34;;;;;;;14.57;11.68;;;;;;;;;;4998389;28;20035;-84
2021/10/10 07:34:05;;;;;;;15.98;11.80;;;;;;;;;;4984493;28;20635;-84
2021/10/10 07:36:34;;;;;;;15.15;11.88;;;;;;;;;;4981951;28;20030;-84
2021/10/10 07:39:05;;;;;;;15.48;11.75;;;;;;;;;;4956223;28;20034;-82
2021/10/10 07:41:40;;;;;;;17.02;12.05;;;;;;;;;;4996196;28;20116;-84
2021/10/10 07:44:12;;;;;;;13.57;10.95;;;;;;;;;;5002328;28;20057;-83
2021/10/10 07:46:43;;;;;;;14.97;11.77;;;;;;;;;;5000181;28;20030;-84
2021/10/10 07:49:08;;;;;;;16.23;12.25;;;;;;;;;;4977903;28;20466;-83
2021/10/10 07:51:38;;;;;;;15.23;11.85;;;;;;;;;;4984873;28;20036;-83
2021/10/10 07:54:10;;;;;;;16.42;13.02;;;;;;;;;;4981080;28;20025;-84
2021/10/10 07:56:38;;;;;;;17.63;13.20;;;;;;;;;;4982191;28;20527;-83
2021/10/10 07:59:09;;;;;;;18.80;13.38;;;;;;;;;;5003279;28;20048;-84
2021/10/10 08:01:39;;;;;;;22.70;13.88;;;;;;;;;;4987349;28;20037;-83
2021/10/10 08:04:06;;;;;;;18.70;13.85;;;;;;;;;;5003181;28;20080;-84
2021/10/10 08:06:40;;;;;;;18.70;13.93;;;;;;;;;;5002818;28;20177;-83
2021/10/10 08:09:09;;;;;;;18.85;14.07;;;;;;;;;;4998847;28;20037;-83
2021/10/10 08:11:37;;;;;;;18.48;14.43;;;;;;;;;;4988903;28;20030;-84
2021/10/10 08:14:10;;;;;;;20.42;15.68;;;;;;;;;;4969219;28;20036;-83
2021/10/10 08:16:44;;;;;;;21.23;15.95;;;;;;;;;;4987693;28;20026;-83
2021/10/10 08:19:13;;;;;;;28.83;18.55;;;;;;;;;;5012411;28;20125;-84
2021/10/10 08:21:42;;;;;;;26.48;18.30;;;;;;;;;;5003002;28;20026;-84
2021/10/10 08:24:16;;;;;;;22.65;18.08;;;;;;;;;;4975751;28;20033;-85
2021/10/10 08:26:47;;;;;;;26.17;19.73;;;;;;;;;;5001047;28;20026;-83
2021/10/10 08:29:14;;;;;;;27.17;20.92;;;;;;;;;;4990681;28;20391;-84
2021/10/10 08:31:44;;;;;;;27.70;20.08;;;;;;;;;;4973176;28;20041;-83
2021/10/10 08:34:16;;;;;;;26.67;20.17;;;;;;;;;;5000764;28;20034;-85
2021/10/10 08:36:44;;;;;;;32.25;22.60;;;;;;;;;;4984705;28;20021;-83
2021/10/10 08:39:22;;;;;;;32.33;23.70;;;;;;;;;;5000833;28;20599;-83
2021/10/10 08:41:49;;;;;;;32.90;24.63;;;;;;;;;;5002694;28;20029;-83
2021/10/10 08:44:19;;;;;;;36.60;24.35;;;;;;;;;;5002534;28;20353;-83
2021/10/10 08:46:49;;;;;;;33.10;23.92;;;;;;;;;;4985929;28;20029;-83
2021/10/10 08:49:17;;;;;;;38.22;26.05;;;;;;;;;;4984933;28;20052;-84
2021/10/10 08:51:50;;;;;;;30.88;23.48;;;;;;;;;;4986006;28;20034;-84
2021/10/10 08:54:19;;;;;;;29.08;22.55;;;;;;;;;;5002591;28;20066;-84
2021/10/10 08:56:50;;;;;;;29.08;22.13;;;;;;;;;;5004101;28;20018;-83
2021/10/10 08:59:20;;;;;;;31.08;22.08;;;;;;;;;;5004713;28;20481;-83
2021/10/10 09:01:52;;;;;;;32.92;23.70;;;;;;;;;;4999915;28;20014;-84
2021/10/10 09:04:22;;;;;;;32.85;23.83;;;;;;;;;;5004337;28;20030;-83
2021/10/10 09:06:52;;;;;;;33.17;24.02;;;;;;;;;;4993454;28;20101;-83
2021/10/10 09:09:45;;;;;;;;;;;;;;;;;;;;;
2021/10/10 09:12:21;;;;;;;;;;;;;;;;;;5019603;28;20097;-84
2021/10/10 09:14:54;;;;;;;34.08;23.77;;;;;;;;;;4998961;28;20414;-84
2021/10/10 09:17:23;;;;;;;35.47;24.38;;;;;;;;;;4964801;28;20444;-83
2021/10/10 09:19:54;;;;;;;33.55;24.95;;;;;;;;;;5021654;28;20057;-84
2021/10/10 09:22:25;;;;;;;32.88;24.73;;;;;;;;;;5000871;28;20026;-84
2021/10/10 09:24:55;;;;;;;34.20;25.38;;;;;;;;;;4996082;28;20037;-83
2021/10/10 09:27:28;;;;;;;36.40;25.88;;;;;;;;;;4999671;28;20026;-84
2021/10/10 09:29:54;;;;;;;33.10;25.15;;;;;;;;;;4988407;28;20033;-83
2021/10/10 09:32:27;;;;;;;38.00;26.13;;;;;;;;;;4996520;28;20044;-84
2021/10/10 09:34:55;;;;;;;38.42;25.00;;;;;;;;;;5017810;28;20032;-83
2021/10/10 09:37:47;;;;;;;34.83;25.92;;;;;;;;;;4984013;28;20121;-84
2021/10/10 09:40:29;;;;;;;38.60;27.30;;;;;;;;;;4982154;28;20666;-84
2021/10/10 09:43:05;;;;;;;39.55;28.13;;;;;;;;;;4995580;28;20022;-84
2021/10/10 09:45:40;;;;;;;43.60;30.02;;;;;;;;;;4984785;28;20034;-84
2021/10/10 09:48:06;;;;;;;41.53;29.15;;;;;;;;;;4993813;28;20167;-84
2021/10/10 09:50:34;;;;;;;45.20;30.48;;;;;;;;;;4996543;28;20057;-84
2021/10/10 09:53:28;;;;;;;46.30;33.38;;;;;;;;;;5006590;28;20037;-83
2021/10/10 09:56:03;;;;;;;44.47;31.60;;;;;;;;;;5009422;28;20448;-84
2021/10/10 09:58:35;;;;;;;48.53;35.65;;;;;;;;;;4994473;28;20128;-84
2021/10/10 10:01:37;;;;;;;50.25;36.35;;;;;;;;;;4995302;28;20065;-84
2021/10/10 10:04:15;;;;;;;50.83;35.10;;;;;;;;;;4993984;28;20175;-84
2021/10/10 10:06:51;;;;;;;50.65;37.20;;;;;;;;;;4997644;28;20026;-83
2021/10/10 10:09:37;;;;;;;48.95;35.97;;;;;;;;;;4980396;28;20037;-83
2021/10/10 10:12:03;;;;;;;46.13;33.53;;;;;;;;;;4983787;28;20091;-84
2021/10/10 10:14:34;;;;;;;50.08;35.60;;;;;;;;;;4980288;28;20033;-83
2021/10/10 10:17:02;;;;;;;50.45;34.45;;;;;;;;;;4996396;28;20026;-85
2021/10/10 10:19:28;;;;;;;51.05;35.05;;;;;;;;;;4995573;28;20045;-84
2021/10/10 10:21:56;;;;;;;50.13;35.22;;;;;;;;;;4997888;28;20025;-84
2021/10/10 10:24:23;;;;;;;44.00;31.33;;;;;;;;;;4997979;28;20042;-84
2021/10/10 10:26:49;;;;;;;46.13;32.40;;;;;;;;;;4991125;28;20113;-84
2021/10/10 10:29:18;;;;;;;45.22;32.83;;;;;;;;;;4981963;28;20033;-83
2021/10/10 10:31:46;;;;;;;46.85;32.95;;;;;;;;;;4994113;28;20030;-84
2021/10/10 10:34:26;;;;;;;42.25;31.88;;;;;;;;;;4996946;28;20037;-84
2021/10/10 10:37:09;;;;;;;49.75;34.25;;;;;;;;;;4983373;28;20026;-83
2021/10/10 10:39:43;;;;;;;45.78;31.48;;;;;;;;;;5015602;28;20022;-83
2021/10/10 10:42:23;;;;;;;44.30;31.83;;;;;;;;;;4995914;28;20026;-83
2021/10/10 10:44:51;;;;;;;47.47;32.85;;;;;;;;;;4986626;28;20485;-84
2021/10/10 10:47:37;;;;;;;47.58;33.47;;;;;;;;;;5009564;28;20641;-84
2021/10/10 10:50:05;;;;;;;46.58;32.78;;;;;;;;;;4990062;28;20485;-85
2021/10/10 10:52:39;;;;;;;50.30;32.53;;;;;;;;;;4981686;28;20116;-84
2021/10/10 10:55:17;;;;;;;47.75;33.05;;;;;;;;;;4998589;28;20473;-84
2021/10/10 10:57:51;;;;;;;52.33;33.20;;;;;;;;;;4991663;28;20133;-85
2021/10/10 11:00:21;;;;;;;56.90;37.03;;;;;;;;;;4992898;28;20030;-84
2021/10/10 11:03:01;;;;;;;48.75;33.95;;;;;;;;;;5018991;28;20077;-84
2021/10/10 11:05:46;;;;;;;55.05;36.60;;;;;;;;;;4997557;28;20080;-83
2021/10/10 11:08:17;;;;;;;54.15;34.92;;;;;;;;;;5020171;28;20034;-84
2021/10/10 11:11:05;;;;;;;46.40;34.75;;;;;;;;;;5020997;28;20053;-84
2021/10/10 11:13:33;;;;;;;54.33;36.78;;;;;;;;;;4999498;28;20053;-84
2021/10/10 11:16:19;;;;;;;52.17;34.67;;;;;;;;;;5019485;28;20026;-84
2021/10/10 11:18:55;;;;;;;44.80;32.13;;;;;;;;;;4991028;28;20037;-83
2021/10/10 11:21:25;;;;;;;51.35;33.35;;;;;;;;;;5019619;28;20026;-85
2021/10/10 11:23:54;;;;;;;49.85;32.13;;;;;;;;;;4981005;28;20030;-84
2021/10/10 11:26:21;;;;;;;50.13;33.88;;;;;;;;;;5018362;28;20061;-85
2021/10/10 11:28:56;;;;;;;46.53;32.50;;;;;;;;;;4996936;28;20393;-85
2021/10/10 11:31:22;;;;;;;47.90;33.92;;;;;;;;;;5017158;28;20026;-84
2021/10/10 11:34:02;;;;;;;51.00;35.28;;;;;;;;;;5011267;28;20025;-84
2021/10/10 11:36:48;;;;;;;44.55;31.63;;;;;;;;;;4998958;28;20026;-85
2021/10/10 11:39:31;;;;;;;48.85;32.58;;;;;;;;;;5002486;28;20500;-84
2021/10/10 11:41:59;;;;;;;48.58;32.50;;;;;;;;;;4998563;28;20030;-85
2021/10/10 11:44:36;;;;;;;45.50;31.95;;;;;;;;;;5001161;28;20072;-84
2021/10/10 11:47:04;;;;;;;46.58;33.28;;;;;;;;;;5017071;28;20022;-85
2021/10/10 11:52:45;;;;;;;47.00;31.63;;;;;;;;;;5018871;28;20497;-85
2021/10/10 11:57:44;;;;;;;39.15;27.55;;;;;;;;;;5000991;28;20060;-84
2021/10/10 12:00:15;;;;;;;46.20;27.25;;;;;;;;;;5015665;28;20449;-84
2021/10/10 12:02:43;;;;;;;42.33;27.60;;;;;;;;;;5020240;28;20029;-84
2021/10/10 12:05:12;;;;;;;47.70;28.33;;;;;;;;;;4982935;28;20444;-84
2021/10/10 12:07:38;;;;;;;42.78;28.40;;;;;;;;;;4997633;28;20498;-85
2021/10/10 12:10:05;;;;;;;42.80;28.83;;;;;;;;;;5000462;28;20057;-84
2021/10/10 12:12:31;;;;;;;44.15;28.70;;;;;;;;;;4983365;28;20087;-85
2021/10/10 12:14:58;;;;;;;48.05;27.85;;;;;;;;;;4967816;28;20030;-84
2021/10/10 12:17:33;;;;;;;40.33;27.55;;;;;;;;;;4984613;28;20026;-84
2021/10/10 12:20:26;;;;;;;45.33;28.65;;;;;;;;;;4998270;28;20552;-84
2021/10/10 12:23:06;;;;;;;43.83;29.20;;;;;;;;;;4996872;28;20052;-85
2021/10/10 12:25:40;;;;;;;43.55;27.70;;;;;;;;;;4996168;28;20267;-84
2021/10/10 12:28:11;;;;;;;45.00;28.15;;;;;;;;;;5003450;28;20489;-84
2021/10/10 12:31:01;;;;;;;44.75;27.90;;;;;;;;;;4999554;28;20049;-84
2021/10/10 12:33:31;;;;;;;49.60;29.65;;;;;;;;;;4985730;28;20540;-85
2021/10/10 12:36:16;;;;;;;45.42;29.27;;;;;;;;;;4995119;28;20470;-85
2021/10/10 12:38:46;;;;;;;46.03;28.77;;;;;;;;;;4978887;28;20040;-84
2021/10/10 12:41:22;;;;;;;44.00;27.92;;;;;;;;;;5020034;28;20033;-84
2021/10/10 12:43:50;;;;;;;47.38;29.23;;;;;;;;;;4999154;28;20481;-85
2021/10/10 12:46:18;;;;;;;48.05;29.13;;;;;;;;;;4980440;28;20084;-84
2021/10/10 12:49:00;;;;;;;47.50;29.77;;;;;;;;;;4998125;28;20508;-84
2021/10/10 12:51:26;;;;;;;46.95;28.85;;;;;;;;;;4999677;28;20025;-84
2021/10/10 12:54:10;;;;;;;45.03;29.70;;;;;;;;;;4995082;28;20034;-84
2021/10/10 12:56:35;;;;;;;43.35;28.38;;;;;;;;;;4996622;28;20469;-85
2021/10/10 12:59:00;;;;;;;43.90;28.30;;;;;;;;;;4966743;28;20045;-84
2021/10/10 13:01:28;;;;;;;47.55;29.77;;;;;;;;;;4983096;28;20037;-83
2021/10/10 13:03:54;;;;;;;49.97;31.23;;;;;;;;;;5012843;28;20061;-84
2021/10/10 13:06:20;;;;;;;49.63;30.10;;;;;;;;;;4983239;28;20057;-84
2021/10/10 13:08:54;;;;;;;47.15;30.08;;;;;;;;;;4983411;28;20040;-85
2021/10/10 13:11:22;;;;;;;49.85;30.73;;;;;;;;;;4995667;28;20056;-84
2021/10/10 13:13:48;;;;;;;47.25;31.48;;;;;;;;;;4998776;28;20025;-84
2021/10/10 13:16:15;;;;;;;47.40;30.65;;;;;;;;;;5000313;28;20084;-84
2021/10/10 13:18:42;;;;;;;42.78;28.15;;;;;;;;;;5000568;28;20022;-85
2021/10/10 13:21:07;;;;;;;45.30;29.02;;;;;;;;;;4997688;28;20540;-84
2021/10/10 13:23:33;;;;;;;45.33;28.25;;;;;;;;;;4979669;28;20072;-85
2021/10/10 13:26:00;;;;;;;48.60;30.42;;;;;;;;;;5000353;28;20474;-83
2021/10/10 13:28:26;;;;;;;47.65;30.83;;;;;;;;;;4999678;28;20022;-84
2021/10/10 13:30:58;;;;;;;50.97;30.63;;;;;;;;;;4993615;28;20029;-85
2021/10/10 13:33:24;;;;;;;52.45;31.70;;;;;;;;;;4999286;28;20396;-85
2021/10/10 13:35:50;;;;;;;47.10;29.83;;;;;;;;;;4984524;28;20080;-85
2021/10/10 13:38:16;;;;;;;48.33;30.73;;;;;;;;;;4997472;28;20481;-84
2021/10/10 13:40:41;;;;;;;48.38;30.98;;;;;;;;;;5016150;28;20034;-83
2021/10/10 13:43:06;;;;;;;49.78;30.73;;;;;;;;;;4985169;28;20088;-84
2021/10/10 13:45:32;;;;;;;51.72;32.38;;;;;;;;;;4981592;28;20130;-83
2021/10/10 13:47:58;;;;;;;51.80;32.95;;;;;;;;;;4999688;28;20033;-85
2021/10/10 13:50:23;;;;;;;56.92;32.83;;;;;;;;;;4998511;28;20109;-84
2021/10/10 13:52:49;;;;;;;53.63;33.28;;;;;;;;;;4983112;28;20125;-84
2021/10/10 13:55:15;;;;;;;52.33;32.50;;;;;;;;;;4998934;28;20431;-84
2021/10/10 13:57:40;;;;;;;52.85;32.38;;;;;;;;;;4997252;28;20052;-85
2021/10/10 14:00:08;;;;;;;49.20;31.58;;;;;;;;;;4997906;28;20029;-85
2021/10/10 14:02:33;;;;;;;55.95;31.48;;;;;;;;;;4997836;28;20029;-83
2021/10/10 14:05:00;;;;;;;49.75;31.75;;;;;;;;;;4997511;28;21224;-85
2021/10/10 14:07:26;;;;;;;50.38;32.13;;;;;;;;;;4982206;28;20496;-84
2021/10/10 14:09:51;;;;;;;50.08;31.27;;;;;;;;;;4983396;28;20026;-84
2021/10/10 14:12:17;;;;;;;51.85;30.90;;;;;;;;;;4982876;28;20118;-84
2021/10/10 14:14:46;;;;;;;50.28;31.92;;;;;;;;;;4982108;28;20030;-84
2021/10/10 14:17:12;;;;;;;51.15;30.98;;;;;;;;;;4995995;28;20076;-84
2021/10/10 14:19:37;;;;;;;44.55;28.65;;;;;;;;;;4999528;28;20026;-85
2021/10/10 14:22:03;;;;;;;49.53;29.20;;;;;;;;;;4983457;28;20026;-84
2021/10/10 14:24:29;;;;;;;48.75;29.20;;;;;;;;;;4982889;28;20400;-85
2021/10/10 14:26:54;;;;;;;46.90;28.65;;;;;;;;;;5010602;28;20034;-84
2021/10/10 14:29:20;;;;;;;47.50;29.38;;;;;;;;;;4991270;28;20041;-84
2021/10/10 14:31:45;;;;;;;46.78;29.83;;;;;;;;;;4982314;28;20038;-85
2021/10/10 14:34:12;;;;;;;44.35;28.92;;;;;;;;;;4981858;28;20050;-84
2021/10/10 14:36:37;;;;;;;51.38;30.42;;;;;;;;;;4982461;28;20122;-85
2021/10/10 14:39:05;;;;;;;44.78;28.30;;;;;;;;;;4980904;28;20493;-85